METAR AND TAF INFORMATION
METAR FOR KEYW
KEYW 260253Z AUTO 02003KT 10SM CLR 16/12 A3019 RMK AO2 SLP230 T01560122 51008 $
KEYW 260153Z 02003KT 10SM CLR 16/12 A3019 RMK AO2 SLP228 T01560122 $
KEYW 260053Z 00000KT 10SM CLR 17/12 A3018 RMK AO2 SLP225 T01670117 $
KEYW 252351Z 2600/2624 02003KT P6SM SKC
FM261400 06008KT P6SM FEW035

 AIRPORT MAP

 RUNWAY INFORMATION
Runway 09 Runway length 4801 ft Runway width 100 ft
Runway elevation 3 ft Runway displaced threshold 0 ft Runway heading 89
Runway 27 Runway length 4801 ft Runway width 100 ft
Runway elevation 3 ft Runway displaced threshold 0 ft Runway heading 269

 AIRPORT FREQUENCIES
Type A/D Name NAVY KEY W Frequency 124.45 MHZ
Type ASOS Name ASOS Frequency 119.65 MHZ
Type ATIS Name ATIS Frequency 119.675 MHZ
Type CLD Name CLNC DEL Frequency 121.9 MHZ
Type CTAF Name CTAF Frequency 118.2 MHZ
Type FSS Name MIAMI RDO Frequency 122.2 MHZ
Type GND Name GND Frequency 121.9 MHZ
Type TWR Name TWR Frequency 118.2 MHZ
Type UNIC Name UNICOM Frequency 122.95 MHZ

 AIRPORT NEAR NAVIGATION AIDS
Type NDB Name Fish Hook Frequency 332 KHZ

-